Commodore Goodwill — C6NU8 — position and weather

sailwx.info

Track history (hours):
 
Tides and Currents Weather Stations Pressure Air Temp Water Temp Dewpoint Dewpoint Depression Visibility Wind Speed Wind Dir Waves Ship Positions

Commodore Goodwill

Operator: Condor Marine Services

Last reported at 2020-Jul-02 14:31 UTC. Time now 2020-Jul-02 14:55 UTC.
Position N 50°40' W 001°04'.

Length 126 m; draft 5 m.

Type: Ship (hazmat cat C). MMSI: 309536000.

Date/timePositionNaut miles runAvg speedWind from/ knotsBaromVisibWave heightAir tempDewpointWater temp
2020-Jul-02 14:31N 50°40' W 001°04'5214.4
2020-Jul-02 10:53N 49°58' W 001°51'2614.1
2020-Jul-02 09:03N 49°37' W 002°16'116.3
2020-Jul-02 08:59N 49°37' W 002°17'15 6.0
2020-Jul-02 06:30N 49°23' W 002°28'18 5.4
2020-Jul-02 03:05N 49°11' W 002°07'4 7.0
2020-Jul-02 02:30N 49°10' W 002°13'1212.1
2020-Jul-02 01:30N 49°22' W 002°17'3115.7
2020-Jul-01 23:31N 49°50' W 001°56'6713.4
2020-Jul-01 18:31N 50°49' W 001°06'0 0.0
2020-Jul-01 16:01N 50°49' W 001°06'23 8.8
2020-Jul-01 13:21N 50°27' W 001°19'85 7.8
2020-Jul-01 02:29N 49°10' W 002°13'3313.2
2020-Jul-01 00:01N 49°42' W 002°02'7613.8
2020-Jun-30 18:31N 50°48' W 001°07'1 1.6
2020-Jun-30 18:00N 50°49' W 001°06'0 0.0
2020-Jun-30 17:30N 50°49' W 001°06'0 0.0
2020-Jun-30 16:30N 50°49' W 001°06'0 0.0
2020-Jun-30 15:30N 50°49' W 001°06'9 8.5
2020-Jun-30 14:31N 50°40' W 001°04'9213.2
2020-Jun-30 07:31N 49°27' W 002°32'4 4.4
2020-Jun-30 06:30N 49°24' W 002°28'16 4.1
2020-Jun-30 02:31N 49°10' W 002°15'2713.7
2020-Jun-30 00:30N 49°37' W 002°06'8210.2
2020-Jun-29 16:30N 50°49' W 001°06'0 0.0
2020-Jun-29 16:00N 50°49' W 001°06'15 7.6
2020-Jun-29 14:01N 50°34' W 001°11'8311.8
2020-Jun-29 07:00N 49°26' W 002°26'3 1.7
2020-Jun-29 05:30N 49°26' W 002°30'8 8.0
2020-Jun-29 04:31N 49°18' W 002°29'8 2.1
2020-Jun-29 00:31N 49°22' W 002°17'1515.3
2020-Jun-28 23:31N 49°36' W 002°08'1414.1
2020-Jun-28 22:30N 49°48' W 001°58'714.6
2020-Jun-28 22:01N 49°55' W 001°53'814.5
2020-Jun-28 21:27N 50°02' W 001°46'4514.4
2020-Jun-28 18:17N 50°39' W 001°05'10 2.6
2020-Jun-28 14:30N 50°49' W 001°06'0 0.0
2020-Jun-28 13:30N 50°49' W 001°06'0 0.0
2020-Jun-28 12:00N 50°49' W 001°06'0 0.0
2020-Jun-28 07:30N 50°49' W 001°06'11 4.3
2020-Jun-28 05:00N 50°38' W 001°07'57 9.6
2020-Jun-27 23:00N 49°50' W 001°56'4 9.0
2020-Jun-27 22:30N 49°47' W 002°01'17 5.7
2020-Jun-27 19:30N 49°29' W 002°01'2 4.2
2020-Jun-27 19:00N 49°27' W 002°01'12 4.7
2020-Jun-27 16:30N 49°17' W 001°53'11 1.6
2020-Jun-27 09:20N 49°11' W 002°07'0 0.0
2020-Jun-27 07:01N 49°11' W 002°07'1010.4
2020-Jun-27 06:00N 49°14' W 002°22'12 3.5
2020-Jun-27 02:30N 49°26' W 002°27'611.1
2020-Jun-27 02:00N 49°29' W 002°20'1212.3
2020-Jun-27 01:00N 49°38' W 002°07'2512.5
2020-Jun-26 23:00N 49°59' W 001°45'4912.2
2020-Jun-26 19:00N 50°40' W 001°04'9 5.9
2020-Jun-26 17:30N 50°49' W 001°06'0 0.0
2020-Jun-26 16:00N 50°49' W 001°06'15 7.3
2020-Jun-26 14:00N 50°34' W 001°10'2516.7
2020-Jun-26 12:30N 50°15' W 001°35'1619.3
2020-Jun-26 11:39N 50°01' W 001°49'319.4
2020-Jun-26 11:30N 49°59' W 001°51'1020.0
2020-Jun-26 11:00N 49°50' W 001°58'4012.8
2020-Jun-26 07:54N 49°11' W 002°07'0 0.0
2020-Jun-26 07:29N 49°11' W 002°07'0 0.0
2020-Jun-26 06:58N 49°11' W 002°07'3 3.1
2020-Jun-26 06:00N 49°10' W 002°11'714.3
2020-Jun-26 05:30N 49°11' W 002°22'18 5.9
2020-Jun-26 02:30N 49°27' W 002°32'16 8.2
2020-Jun-26 00:30N 49°34' W 002°09'6714.8
2020-Jun-25 19:59N 50°31' W 001°13'1414.7
2020-Jun-25 19:00N 50°45' W 001°05'4 4.2
2020-Jun-25 18:01N 50°49' W 001°06'0 0.0
2020-Jun-25 16:30N 50°49' W 001°06'9 4.3
2020-Jun-25 14:30N 50°40' W 001°04'2214.8
2020-Jun-25 13:00N 50°22' W 001°24'1116.8
2020-Jun-25 12:23N 50°13' W 001°32'616.7
2020-Jun-25 12:00N 50°08' W 001°38'816.1
2020-Jun-25 11:30N 50°01' W 001°44'3617.9
2020-Jun-25 09:30N 49°30' W 002°12'1919.0
2020-Jun-25 08:30N 49°11' W 002°19'1 0.4
2020-Jun-25 05:00N 49°10' W 002°18'1010.2
2020-Jun-25 04:00N 49°19' W 002°27'9 9.3
2020-Jun-25 03:00N 49°27' W 002°32'0 0.0
2020-Jun-25 02:00N 49°27' W 002°32'4 7.6
2020-Jun-25 01:30N 49°26' W 002°26'2113.8
2020-Jun-25 00:00N 49°41' W 002°05'4515.0
2020-Jun-24 21:00N 50°18' W 001°24'3212.9
2020-Jun-24 18:30N 50°49' W 001°06'0 0.1
2020-Jun-24 15:30N 50°49' W 001°06'14 9.5
2020-Jun-24 14:00N 50°35' W 001°10'3014.9
2020-Jun-24 12:01N 50°09' W 001°34'714.9
2020-Jun-24 11:31N 50°03' W 001°40'2214.8
2020-Jun-24 10:00N 49°45' W 002°01'3511.6
2020-Jun-24 07:00N 49°11' W 002°07'0 0.0
2020-Jun-24 06:00N 49°11' W 002°07'13 6.5
2020-Jun-24 04:00N 49°17' W 002°24'1211.7
2020-Jun-24 03:00N 49°27' W 002°32'0 0.0
2020-Jun-24 02:30N 49°27' W 002°32'9 6.1
2020-Jun-24 01:00N 49°30' W 002°18'4515.0
2020-Jun-23 22:00N 50°06' W 001°36'4613.3
2020-Jun-23 18:31N 50°48' W 001°07'1 0.8
2020-Jun-23 17:30N 50°49' W 001°06'20 5.0
2020-Jun-23 13:30N 50°30' W 001°15'3513.9
2020-Jun-23 11:00N 49°60' W 001°43'612.8
2020-Jun-23 10:30N 49°55' W 001°49'713.5
2020-Jun-23 10:00N 49°50' W 001°56'815.1
2020-Jun-23 09:30N 49°44' W 002°03'1414.4
2020-Jun-23 08:31N 49°30' W 002°12'20 6.7
2020-Jun-23 05:30N 49°11' W 002°07'0 0.2
2020-Jun-23 05:01N 49°11' W 002°07'1111.1
2020-Jun-23 04:00N 49°16' W 002°22'1313.0
2020-Jun-23 03:00N 49°27' W 002°31'3 2.1
2020-Jun-23 01:31N 49°26' W 002°27'3015.1
2020-Jun-22 23:30N 49°49' W 001°56'2713.5
2020-Jun-22 21:30N 50°11' W 001°33'714.4
2020-Jun-22 21:00N 50°17' W 001°26'1114.4
2020-Jun-22 20:15N 50°26' W 001°17'514.4
2020-Jun-22 19:54N 50°31' W 001°13'19 5.5
2020-Jun-22 16:30N 50°49' W 001°06'  
Track history (hours):
 
Tides and Currents Weather Stations Pressure Air Temp Water Temp Dewpoint Dewpoint Depression Visibility Wind Speed Wind Dir Waves Ship Positions

Commodore Goodwill

Operator: Condor Marine Services

Last reported at 2020-Jul-02 14:31 UTC. Time now 2020-Jul-02 14:55 UTC.
Position N 50°40' W 001°04'.

Length 126 m; draft 5 m.

Type: Ship (hazmat cat C). MMSI: 309536000.

Date/timePositionNaut miles runAvg speedWind from/ knotsBaromVisibWave heightAir tempDewpointWater temp
2020-Jul-02 14:31N 50°40' W 001°04'5214.4
2020-Jul-02 10:53N 49°58' W 001°51'2614.1
2020-Jul-02 09:03N 49°37' W 002°16'116.3
2020-Jul-02 08:59N 49°37' W 002°17'15 6.0
2020-Jul-02 06:30N 49°23' W 002°28'18 5.4
2020-Jul-02 03:05N 49°11' W 002°07'4 7.0
2020-Jul-02 02:30N 49°10' W 002°13'1212.1
2020-Jul-02 01:30N 49°22' W 002°17'3115.7
2020-Jul-01 23:31N 49°50' W 001°56'6713.4
2020-Jul-01 18:31N 50°49' W 001°06'0 0.0
2020-Jul-01 16:01N 50°49' W 001°06'23 8.8
2020-Jul-01 13:21N 50°27' W 001°19'85 7.8
2020-Jul-01 02:29N 49°10' W 002°13'3313.2
2020-Jul-01 00:01N 49°42' W 002°02'7613.8
2020-Jun-30 18:31N 50°48' W 001°07'1 1.6
2020-Jun-30 18:00N 50°49' W 001°06'0 0.0
2020-Jun-30 17:30N 50°49' W 001°06'0 0.0
2020-Jun-30 16:30N 50°49' W 001°06'0 0.0
2020-Jun-30 15:30N 50°49' W 001°06'9 8.5
2020-Jun-30 14:31N 50°40' W 001°04'9213.2
2020-Jun-30 07:31N 49°27' W 002°32'4 4.4
2020-Jun-30 06:30N 49°24' W 002°28'16 4.1
2020-Jun-30 02:31N 49°10' W 002°15'2713.7
2020-Jun-30 00:30N 49°37' W 002°06'8210.2
2020-Jun-29 16:30N 50°49' W 001°06'0 0.0
2020-Jun-29 16:00N 50°49' W 001°06'15 7.6
2020-Jun-29 14:01N 50°34' W 001°11'8311.8
2020-Jun-29 07:00N 49°26' W 002°26'3 1.7
2020-Jun-29 05:30N 49°26' W 002°30'8 8.0
2020-Jun-29 04:31N 49°18' W 002°29'8 2.1
2020-Jun-29 00:31N 49°22' W 002°17'1515.3
2020-Jun-28 23:31N 49°36' W 002°08'1414.1
2020-Jun-28 22:30N 49°48' W 001°58'714.6
2020-Jun-28 22:01N 49°55' W 001°53'814.5
2020-Jun-28 21:27N 50°02' W 001°46'4514.4
2020-Jun-28 18:17N 50°39' W 001°05'10 2.6
2020-Jun-28 14:30N 50°49' W 001°06'0 0.0
2020-Jun-28 13:30N 50°49' W 001°06'0 0.0
2020-Jun-28 12:00N 50°49' W 001°06'0 0.0
2020-Jun-28 07:30N 50°49' W 001°06'11 4.3
2020-Jun-28 05:00N 50°38' W 001°07'57 9.6
2020-Jun-27 23:00N 49°50' W 001°56'4 9.0
2020-Jun-27 22:30N 49°47' W 002°01'17 5.7
2020-Jun-27 19:30N 49°29' W 002°01'2 4.2
2020-Jun-27 19:00N 49°27' W 002°01'12 4.7
2020-Jun-27 16:30N 49°17' W 001°53'11 1.6
2020-Jun-27 09:20N 49°11' W 002°07'0 0.0
2020-Jun-27 07:01N 49°11' W 002°07'1010.4
2020-Jun-27 06:00N 49°14' W 002°22'12 3.5
2020-Jun-27 02:30N 49°26' W 002°27'611.1
2020-Jun-27 02:00N 49°29' W 002°20'1212.3
2020-Jun-27 01:00N 49°38' W 002°07'2512.5
2020-Jun-26 23:00N 49°59' W 001°45'4912.2
2020-Jun-26 19:00N 50°40' W 001°04'9 5.9
2020-Jun-26 17:30N 50°49' W 001°06'0 0.0
2020-Jun-26 16:00N 50°49' W 001°06'15 7.3
2020-Jun-26 14:00N 50°34' W 001°10'2516.7
2020-Jun-26 12:30N 50°15' W 001°35'1619.3
2020-Jun-26 11:39N 50°01' W 001°49'319.4
2020-Jun-26 11:30N 49°59' W 001°51'1020.0
2020-Jun-26 11:00N 49°50' W 001°58'4012.8
2020-Jun-26 07:54N 49°11' W 002°07'0 0.0
2020-Jun-26 07:29N 49°11' W 002°07'0 0.0
2020-Jun-26 06:58N 49°11' W 002°07'3 3.1
2020-Jun-26 06:00N 49°10' W 002°11'714.3
2020-Jun-26 05:30N 49°11' W 002°22'18 5.9
2020-Jun-26 02:30N 49°27' W 002°32'16 8.2
2020-Jun-26 00:30N 49°34' W 002°09'6714.8
2020-Jun-25 19:59N 50°31' W 001°13'1414.7
2020-Jun-25 19:00N 50°45' W 001°05'4 4.2
2020-Jun-25 18:01N 50°49' W 001°06'0 0.0
2020-Jun-25 16:30N 50°49' W 001°06'9 4.3
2020-Jun-25 14:30N 50°40' W 001°04'2214.8
2020-Jun-25 13:00N 50°22' W 001°24'1116.8
2020-Jun-25 12:23N 50°13' W 001°32'616.7
2020-Jun-25 12:00N 50°08' W 001°38'816.1
2020-Jun-25 11:30N 50°01' W 001°44'3617.9
2020-Jun-25 09:30N 49°30' W 002°12'1919.0
2020-Jun-25 08:30N 49°11' W 002°19'1 0.4
2020-Jun-25 05:00N 49°10' W 002°18'1010.2
2020-Jun-25 04:00N 49°19' W 002°27'9 9.3
2020-Jun-25 03:00N 49°27' W 002°32'0 0.0
2020-Jun-25 02:00N 49°27' W 002°32'4 7.6
2020-Jun-25 01:30N 49°26' W 002°26'2113.8
2020-Jun-25 00:00N 49°41' W 002°05'4515.0
2020-Jun-24 21:00N 50°18' W 001°24'3212.9
2020-Jun-24 18:30N 50°49' W 001°06'0 0.1
2020-Jun-24 15:30N 50°49' W 001°06'14 9.5
2020-Jun-24 14:00N 50°35' W 001°10'3014.9
2020-Jun-24 12:01N 50°09' W 001°34'714.9
2020-Jun-24 11:31N 50°03' W 001°40'2214.8
2020-Jun-24 10:00N 49°45' W 002°01'3511.6
2020-Jun-24 07:00N 49°11' W 002°07'0 0.0
2020-Jun-24 06:00N 49°11' W 002°07'13 6.5
2020-Jun-24 04:00N 49°17' W 002°24'1211.7
2020-Jun-24 03:00N 49°27' W 002°32'0 0.0
2020-Jun-24 02:30N 49°27' W 002°32'9 6.1
2020-Jun-24 01:00N 49°30' W 002°18'4515.0
2020-Jun-23 22:00N 50°06' W 001°36'4613.3
2020-Jun-23 18:31N 50°48' W 001°07'1 0.8
2020-Jun-23 17:30N 50°49' W 001°06'20 5.0
2020-Jun-23 13:30N 50°30' W 001°15'3513.9
2020-Jun-23 11:00N 49°60' W 001°43'612.8
2020-Jun-23 10:30N 49°55' W 001°49'713.5
2020-Jun-23 10:00N 49°50' W 001°56'815.1
2020-Jun-23 09:30N 49°44' W 002°03'1414.4
2020-Jun-23 08:31N 49°30' W 002°12'20 6.7
2020-Jun-23 05:30N 49°11' W 002°07'0 0.2
2020-Jun-23 05:01N 49°11' W 002°07'1111.1
2020-Jun-23 04:00N 49°16' W 002°22'1313.0
2020-Jun-23 03:00N 49°27' W 002°31'3 2.1
2020-Jun-23 01:31N 49°26' W 002°27'3015.1
2020-Jun-22 23:30N 49°49' W 001°56'2713.5
2020-Jun-22 21:30N 50°11' W 001°33'714.4
2020-Jun-22 21:00N 50°17' W 001°26'1114.4
2020-Jun-22 20:15N 50°26' W 001°17'514.4
2020-Jun-22 19:54N 50°31' W 001°13'19 5.5
2020-Jun-22 16:30N 50°49' W 001°06'  

Dump ship's entire track history